createdAt,value
2022-09-16T00:03:19.742Z,0
2022-09-16T00:08:42.405Z,0
2022-09-16T00:14:04.833Z,0
2022-09-16T00:19:27.582Z,0
2022-09-16T00:24:53.389Z,0
2022-09-16T00:30:18.985Z,0
2022-09-16T00:35:44.595Z,0
2022-09-16T00:41:14.770Z,0
2022-09-16T00:46:37.475Z,0
2022-09-16T00:52:00.172Z,0
2022-09-16T00:57:28.445Z,0
2022-09-16T01:02:51.273Z,0
2022-09-16T01:08:14.024Z,0
2022-09-16T01:13:37.132Z,0
2022-09-16T01:18:59.659Z,0
2022-09-16T01:24:21.882Z,0
2022-09-16T01:29:47.167Z,0
2022-09-16T01:35:10.267Z,0
2022-09-16T01:40:33.955Z,0
2022-09-16T01:45:57.089Z,0
2022-09-16T01:51:19.317Z,0
2022-09-16T01:56:41.735Z,0
2022-09-16T02:02:07.051Z,0
2022-09-16T02:07:30.122Z,0
2022-09-16T02:12:54.851Z,0
2022-09-16T02:18:20.010Z,0
2022-09-16T02:23:42.512Z,0
2022-09-16T02:29:10.787Z,0
2022-09-16T02:34:33.168Z,0
2022-09-16T02:39:59.354Z,0
2022-09-16T02:45:22.080Z,0
2022-09-16T02:50:44.543Z,0
2022-09-16T02:56:06.736Z,0
2022-09-16T03:12:14.257Z,0
2022-09-16T03:17:37.055Z,0
2022-09-16T03:22:59.899Z,0
2022-09-16T03:28:40.247Z,0
2022-09-16T03:34:02.585Z,0
2022-09-16T03:39:48.273Z,0
2022-09-16T03:45:11.542Z,0
2022-09-16T03:50:33.857Z,0
2022-09-16T03:55:56.316Z,0
2022-09-16T04:01:18.972Z,0
2022-09-16T04:06:41.805Z,0
2022-09-16T04:12:04.258Z,0
2022-09-16T04:17:27.003Z,0
2022-09-16T04:22:49.594Z,0
2022-09-16T04:28:12.802Z,0
2022-09-16T04:33:35.596Z,0
2022-09-16T04:38:58.321Z,0
2022-09-16T04:44:21.290Z,0
2022-09-16T04:49:44.488Z,0
2022-09-16T05:00:32.056Z,0
2022-09-16T05:05:56.800Z,2
2022-09-16T05:11:19.229Z,12
2022-09-16T05:16:44.779Z,20.6
2022-09-16T05:22:07.558Z,29.3
2022-09-16T05:27:30.737Z,24.4
2022-09-16T05:32:52.973Z,25.1
2022-09-16T05:38:15.844Z,34.7
2022-09-16T05:43:38.315Z,54.4
2022-09-16T05:49:03.909Z,83.3
2022-09-16T05:54:29.578Z,98.5
2022-09-16T05:59:52.583Z,122.1
2022-09-16T06:05:15.028Z,74.6
2022-09-16T06:10:40.699Z,93.4
2022-09-16T06:21:06.273Z,123.9
2022-09-16T06:26:29.341Z,130.2
2022-09-16T06:37:17.561Z,225.1
2022-09-16T06:42:40.706Z,271.1
2022-09-16T06:48:06.799Z,195.8
2022-09-16T06:58:33.663Z,203.7
2022-09-16T07:03:57.106Z,289.8
2022-09-16T07:09:27.752Z,310
2022-09-16T07:14:59.821Z,292.4
2022-09-16T07:20:23.656Z,299.7
2022-09-16T07:25:46.891Z,466.5
2022-09-16T07:31:10.244Z,376.1
2022-09-16T07:36:33.108Z,268.9
2022-09-16T07:41:55.722Z,264.1
2022-09-16T07:48:20.731Z,244.5
2022-09-16T07:53:43.930Z,285.8
2022-09-16T07:59:06.900Z,337.7
2022-09-16T08:04:30.029Z,315.3
2022-09-16T08:09:55.630Z,309.7
2022-09-16T08:20:41.735Z,429.1
2022-09-16T08:26:05.324Z,691.4
2022-09-16T08:36:51.357Z,788.1
2022-09-16T08:42:14.151Z,554.5
2022-09-16T08:47:36.173Z,420.3
2022-09-16T08:53:01.538Z,495.3
2022-09-16T08:58:24.859Z,708.6
2022-09-16T09:03:52.784Z,672.6
2022-09-16T09:09:14.601Z,412.5
2022-09-16T09:14:37.984Z,605.8
2022-09-16T09:20:01.692Z,595.6
2022-09-16T09:25:24.133Z,681.4
2022-09-16T09:30:51.139Z,2663.3
2022-09-16T09:36:14.743Z,1190.1
2022-09-16T09:41:37.415Z,746.5
2022-09-16T09:46:59.258Z,841.2
2022-09-16T09:52:22.397Z,666.5
2022-09-16T09:57:44.889Z,1074.6
2022-09-16T10:03:08.663Z,826.6
2022-09-16T10:08:38.134Z,2477.6
2022-09-16T10:14:10.207Z,2326.3
2022-09-16T10:19:32.970Z,2057.8
2022-09-16T10:24:53.582Z,2372.3
2022-09-16T10:30:17.229Z,1527.8
2022-09-16T10:35:43.427Z,651.5
2022-09-16T10:41:16.399Z,2285.3
2022-09-16T10:46:45.904Z,2015.4
2022-09-16T10:52:10.126Z,2361.6
2022-09-16T10:57:32.480Z,587.8
2022-09-16T11:02:52.998Z,277.8
2022-09-16T11:08:14.891Z,363.7
2022-09-16T11:13:45.900Z,302.6
2022-09-16T11:19:11.381Z,243.7
2022-09-16T11:24:34.008Z,422.4
2022-09-16T11:29:57.065Z,250.4
2022-09-16T11:35:19.495Z,50.1
2022-09-16T11:40:41.517Z,131
2022-09-16T11:51:13.814Z,1725.5
2022-09-16T11:56:45.472Z,3018.5
2022-09-16T12:02:06.533Z,814.8
2022-09-16T12:07:29.296Z,751.7
2022-09-16T12:12:52.659Z,1278.6
2022-09-16T12:18:18.210Z,3076.9
2022-09-16T12:23:40.399Z,120.5
2022-09-16T12:29:00.405Z,126
2022-09-16T12:34:22.445Z,166.7
2022-09-16T12:39:44.596Z,94
2022-09-16T12:45:09.624Z,60.5
2022-09-16T12:50:32.098Z,60.6
2022-09-16T12:55:54.534Z,140.5
2022-09-16T13:01:17.764Z,426.8
2022-09-16T13:06:43.603Z,554.1
2022-09-16T13:12:50.092Z,1233.1
2022-09-16T13:18:17.438Z,709.2
2022-09-16T13:23:40.206Z,561.8
2022-09-16T13:29:05.242Z,1655.3
2022-09-16T13:34:28.030Z,1348
2022-09-16T13:39:51.772Z,1099.2
2022-09-16T13:45:22.194Z,1145.3
2022-09-16T13:50:43.727Z,717.5
2022-09-16T14:01:18.727Z,952.2
2022-09-16T14:06:40.523Z,783.8
2022-09-16T14:12:02.711Z,284
2022-09-16T14:17:26.521Z,368.8
2022-09-16T14:22:50.060Z,1337.1
2022-09-16T14:28:17.385Z,567.6
2022-09-16T14:33:38.202Z,789.7
2022-09-16T14:39:00.925Z,1633.6
2022-09-16T14:44:27.067Z,680.8
2022-09-16T14:49:48.838Z,587.3
2022-09-16T14:55:12.003Z,285.9
2022-09-16T15:00:33.047Z,31.5
2022-09-16T15:05:54.727Z,26.7
2022-09-16T15:11:47.396Z,42.4
2022-09-16T15:17:11.592Z,65.3
2022-09-16T15:22:37.335Z,200.8
2022-09-16T15:28:09.768Z,450.5
2022-09-16T15:33:34.794Z,458.9
2022-09-16T15:38:57.431Z,288.5
2022-09-16T15:44:19.677Z,203.1
2022-09-16T15:49:42.187Z,182.8
2022-09-16T15:55:04.248Z,143.9
2022-09-16T16:00:26.903Z,121.5
2022-09-16T16:05:49.607Z,72.6
2022-09-16T16:11:12.000Z,58.1
2022-09-16T16:17:11.579Z,47.8
2022-09-16T16:22:36.619Z,60.9
2022-09-16T16:27:59.141Z,74.9
2022-09-16T16:33:30.727Z,84.3
2022-09-16T16:38:55.587Z,86.6
2022-09-16T16:55:14.834Z,120.7
2022-09-16T17:00:38.108Z,94.3
2022-09-16T17:06:00.656Z,59.3
2022-09-16T17:11:32.555Z,39.4
2022-09-16T17:17:04.199Z,32.3
2022-09-16T17:22:29.709Z,31.4
2022-09-16T17:27:52.655Z,29.1
2022-09-16T17:33:15.489Z,25
2022-09-16T17:38:38.250Z,20.9
2022-09-16T17:44:00.928Z,17.6
2022-09-16T17:55:18.440Z,4
2022-09-16T18:00:41.241Z,0
2022-09-16T18:06:03.722Z,0
2022-09-16T18:11:26.444Z,0
2022-09-16T18:16:49.479Z,0
2022-09-16T18:22:14.601Z,0
2022-09-16T18:27:44.236Z,0
2022-09-16T18:33:07.582Z,0
2022-09-16T18:43:58.178Z,0
2022-09-16T18:49:23.761Z,0
2022-09-16T18:54:58.527Z,0
2022-09-16T19:00:21.246Z,0
2022-09-16T19:05:44.391Z,0
2022-09-16T19:11:06.602Z,0
2022-09-16T19:16:29.543Z,0
2022-09-16T19:21:52.818Z,0
2022-09-16T19:27:17.851Z,0
2022-09-16T19:32:41.140Z,0
2022-09-16T19:38:04.410Z,0
2022-09-16T19:43:27.084Z,0
2022-09-16T19:48:52.936Z,0
2022-09-16T19:54:16.154Z,0
2022-09-16T19:59:38.597Z,0
2022-09-16T20:05:08.443Z,0
2022-09-16T20:10:34.985Z,0
2022-09-16T20:15:57.656Z,0
2022-09-16T20:21:28.779Z,0
2022-09-16T20:32:14.226Z,0
2022-09-16T20:37:36.906Z,0
2022-09-16T20:43:02.479Z,0
2022-09-16T20:48:45.930Z,0
2022-09-16T20:54:09.589Z,0
2022-09-16T20:59:32.931Z,0
2022-09-16T21:04:57.725Z,0
2022-09-16T21:10:21.580Z,0
2022-09-16T21:15:44.888Z,0
2022-09-16T21:21:08.013Z,0
2022-09-16T21:26:37.241Z,0
2022-09-16T21:32:02.852Z,0
2022-09-16T21:37:25.413Z,0
2022-09-16T21:42:48.617Z,0
2022-09-16T21:48:11.073Z,0
2022-09-16T21:53:37.142Z,0
2022-09-16T21:58:59.735Z,0
2022-09-16T22:04:22.448Z,0
2022-09-16T22:09:45.045Z,0
2022-09-16T22:20:32.723Z,0
2022-09-16T22:26:04.956Z,0
2022-09-16T22:31:31.793Z,0
2022-09-16T22:36:54.808Z,0
2022-09-16T22:42:17.421Z,0
2022-09-16T22:47:40.516Z,0
2022-09-16T22:53:03.201Z,0
2022-09-16T22:58:25.923Z,0
2022-09-16T23:03:52.141Z,0
2022-09-16T23:09:14.619Z,0
2022-09-16T23:14:37.223Z,0
2022-09-16T23:20:00.292Z,0
2022-09-16T23:25:22.705Z,0
2022-09-16T23:30:45.427Z,0
2022-09-16T23:36:08.083Z,0
2022-09-16T23:41:30.580Z,0
2022-09-16T23:47:14.964Z,0
2022-09-16T23:52:37.693Z,0
2022-09-16T23:58:00.308Z,0
